createdAt,value
2018-07-03T00:01:35.979Z,67.90
2018-07-03T00:04:04.587Z,68.60
2018-07-03T00:06:34.919Z,67.90
2018-07-03T00:09:04.750Z,68.20
2018-07-03T00:11:34.744Z,68.10
2018-07-03T00:14:05.866Z,68.30
2018-07-03T00:16:39.480Z,68.40
2018-07-03T00:19:09.196Z,68.70
2018-07-03T00:21:42.894Z,68.90
2018-07-03T00:24:12.989Z,69.00
2018-07-03T00:26:43.198Z,69.20
2018-07-03T00:29:11.554Z,69.70
2018-07-03T00:31:39.841Z,69.80
2018-07-03T00:34:08.398Z,69.80
2018-07-03T00:36:36.674Z,69.90
2018-07-03T00:39:07.036Z,69.90
2018-07-03T00:41:35.318Z,69.80
2018-07-03T00:44:03.636Z,69.50
2018-07-03T00:46:34.311Z,69.10
2018-07-03T00:49:04.865Z,69.40
2018-07-03T00:51:38.631Z,69.40
2018-07-03T00:54:12.673Z,69.40
2018-07-03T00:56:40.981Z,69.40
2018-07-03T00:59:09.277Z,69.50
2018-07-03T01:01:37.947Z,69.60
2018-07-03T01:04:07.055Z,70.00
2018-07-03T01:06:35.465Z,70.10
2018-07-03T01:09:05.638Z,70.20
2018-07-03T01:11:33.900Z,70.30
2018-07-03T01:14:02.282Z,70.50
2018-07-03T01:16:32.906Z,70.30
2018-07-03T01:19:07.029Z,70.30
2018-07-03T01:21:38.695Z,70.50
2018-07-03T01:24:08.724Z,70.60
2018-07-03T01:26:45.360Z,70.60
2018-07-03T01:29:14.192Z,71.20
2018-07-03T01:31:48.267Z,71.40
2018-07-03T01:34:17.543Z,71.60
2018-07-03T01:36:46.486Z,72.10
2018-07-03T01:39:16.529Z,72.20
2018-07-03T01:41:46.172Z,72.60
2018-07-03T01:44:14.984Z,72.60
2018-07-03T01:46:43.718Z,73.20
2018-07-03T01:49:13.068Z,73.70
2018-07-03T01:51:42.529Z,73.70
2018-07-03T01:54:10.856Z,74.00
2018-07-03T01:56:39.130Z,73.90
2018-07-03T01:59:08.502Z,74.10
2018-07-03T02:04:04.846Z,74.20
2018-07-03T02:06:33.101Z,74.00
2018-07-03T02:09:02.825Z,74.70
2018-07-03T02:11:31.214Z,73.90
2018-07-03T02:13:59.467Z,74.00
2018-07-03T02:16:28.325Z,74.30
2018-07-03T02:18:56.603Z,73.90
2018-07-03T02:21:24.874Z,74.90
2018-07-03T02:23:53.105Z,75.30
2018-07-03T02:26:27.114Z,75.00
2018-07-03T02:28:56.911Z,75.20
2018-07-03T02:31:38.166Z,75.20
2018-07-03T02:34:07.789Z,75.40
2018-07-03T02:36:38.009Z,76.00
2018-07-03T02:39:12.174Z,76.80
2018-07-03T02:41:41.864Z,76.70
2018-07-03T02:44:10.181Z,77.60
2018-07-03T02:46:38.469Z,78.00
2018-07-03T02:49:06.733Z,78.00
2018-07-03T02:51:35.042Z,78.70
2018-07-03T02:54:05.361Z,79.60
2018-07-03T02:56:33.810Z,79.80
2018-07-03T02:59:02.254Z,79.90
2018-07-03T03:01:30.539Z,80.20
2018-07-03T03:03:59.289Z,80.30
2018-07-03T03:06:28.548Z,80.60
2018-07-03T03:08:57.918Z,81.00
2018-07-03T03:14:04.688Z,82.50
2018-07-03T03:16:33.054Z,82.50
2018-07-03T03:19:02.388Z,82.70
2018-07-03T03:21:31.944Z,82.80
2018-07-03T03:24:00.847Z,82.80
2018-07-03T03:26:29.151Z,83.10
2018-07-03T03:28:57.386Z,83.70
2018-07-03T03:33:53.655Z,84.60
2018-07-03T03:36:24.060Z,84.50
2018-07-03T03:38:52.434Z,84.70
2018-07-03T03:41:20.679Z,85.20
2018-07-03T03:43:49.018Z,84.60
2018-07-03T03:46:18.653Z,85.30
2018-07-03T03:48:48.506Z,85.30
2018-07-03T03:51:18.607Z,85.20
2018-07-03T03:53:46.924Z,85.50
2018-07-03T03:56:16.844Z,85.00
2018-07-03T03:58:45.094Z,85.00
2018-07-03T04:01:14.007Z,85.20
2018-07-03T04:03:42.420Z,85.50
2018-07-03T04:06:12.448Z,85.10
2018-07-03T04:08:40.850Z,85.30
2018-07-03T04:11:09.412Z,86.10
2018-07-03T04:13:39.176Z,86.20
2018-07-03T04:18:40.101Z,86.30
2018-07-03T04:21:08.917Z,86.70
2018-07-03T04:23:38.453Z,86.80
2018-07-03T04:26:07.675Z,85.60
2018-07-03T04:28:37.435Z,85.90
2018-07-03T04:31:10.240Z,86.30
2018-07-03T04:33:40.623Z,86.80
2018-07-03T04:36:10.051Z,86.90
2018-07-03T04:38:39.475Z,86.70
2018-07-03T04:41:07.926Z,86.40
2018-07-03T04:43:36.263Z,85.60
2018-07-03T04:46:05.665Z,85.20
2018-07-03T04:48:34.800Z,84.90
2018-07-03T04:51:05.100Z,85.00
2018-07-03T04:53:38.437Z,83.60
2018-07-03T04:56:09.663Z,84.10
2018-07-03T04:58:39.568Z,84.90
2018-07-03T05:01:08.578Z,84.00
2018-07-03T05:03:37.330Z,83.20
2018-07-03T05:06:05.731Z,81.00
2018-07-03T05:08:38.011Z,79.80
2018-07-03T05:11:07.671Z,79.40
2018-07-03T05:13:38.390Z,79.70
2018-07-03T05:16:08.120Z,78.40
2018-07-03T05:18:37.370Z,80.20
2018-07-03T05:21:09.694Z,83.40
2018-07-03T05:23:39.952Z,81.30
2018-07-03T05:26:08.343Z,81.80
2018-07-03T05:28:41.782Z,81.40
2018-07-03T05:31:11.473Z,81.00
2018-07-03T05:33:40.694Z,80.20
2018-07-03T05:36:09.051Z,78.90
2018-07-03T05:38:37.769Z,78.20
2018-07-03T05:43:43.692Z,76.70
2018-07-03T05:46:13.805Z,75.90
2018-07-03T05:48:48.377Z,76.80
2018-07-03T05:51:16.754Z,77.20
2018-07-03T05:53:45.024Z,75.70
2018-07-03T05:56:13.536Z,76.70
2018-07-03T05:58:43.276Z,75.40
2018-07-03T06:01:17.998Z,74.70
2018-07-03T06:03:49.124Z,74.10
2018-07-03T06:06:17.439Z,70.70
2018-07-03T06:08:46.275Z,71.50
2018-07-03T06:11:14.566Z,70.40
2018-07-03T06:13:42.935Z,69.10
2018-07-03T06:16:11.179Z,69.50
2018-07-03T06:18:39.481Z,69.40
2018-07-03T06:21:07.745Z,68.50
2018-07-03T06:23:36.009Z,65.50
2018-07-03T06:26:04.353Z,66.60
2018-07-03T06:28:32.629Z,66.00
2018-07-03T06:31:03.312Z,65.20
2018-07-03T06:33:31.609Z,63.30
2018-07-03T06:35:59.855Z,62.90
2018-07-03T06:38:29.364Z,60.20
2018-07-03T06:40:58.194Z,63.00
2018-07-03T06:43:27.210Z,61.70
2018-07-03T06:45:56.246Z,62.30
2018-07-03T06:48:24.595Z,60.50
2018-07-03T06:50:52.861Z,59.80
2018-07-03T06:53:23.716Z,60.60
2018-07-03T06:55:55.978Z,59.10
2018-07-03T06:58:25.070Z,57.90
2018-07-03T07:00:54.580Z,58.20
2018-07-03T07:03:22.848Z,57.80
2018-07-03T07:05:51.103Z,57.70
2018-07-03T07:08:19.370Z,58.30
2018-07-03T07:10:47.683Z,57.80
2018-07-03T07:13:15.993Z,57.80
2018-07-03T07:15:44.595Z,57.10
2018-07-03T07:18:12.934Z,57.80
2018-07-03T07:20:41.259Z,56.10
2018-07-03T07:23:09.568Z,56.00
2018-07-03T07:25:38.008Z,55.80
2018-07-03T07:28:06.340Z,56.30
2018-07-03T07:30:34.686Z,54.10
2018-07-03T07:33:03.155Z,55.80
2018-07-03T07:35:31.455Z,55.00
2018-07-03T07:37:59.762Z,53.90
2018-07-03T07:40:28.550Z,52.20
2018-07-03T07:42:56.852Z,53.50
2018-07-03T07:45:25.886Z,52.80
2018-07-03T07:50:22.193Z,54.30
2018-07-03T07:52:50.494Z,52.40
2018-07-03T07:55:18.800Z,53.10
2018-07-03T07:57:47.714Z,53.20
2018-07-03T08:00:16.060Z,52.50
2018-07-03T08:02:44.266Z,51.60
2018-07-03T08:05:12.594Z,51.30
2018-07-03T08:07:42.062Z,50.30
2018-07-03T08:10:10.598Z,50.20
2018-07-03T08:12:38.850Z,49.30
2018-07-03T08:15:07.162Z,49.40
2018-07-03T08:17:35.406Z,50.60
2018-07-03T08:20:04.230Z,50.40
2018-07-03T08:22:32.492Z,47.10
2018-07-03T08:25:04.925Z,46.80
2018-07-03T08:27:33.274Z,46.30
2018-07-03T08:30:03.779Z,46.30
2018-07-03T08:32:32.873Z,44.80
2018-07-03T08:35:04.146Z,43.50
2018-07-03T08:37:35.438Z,46.00
2018-07-03T08:40:05.943Z,45.60
2018-07-03T08:42:36.424Z,45.40
2018-07-03T08:45:06.190Z,44.50
2018-07-03T08:47:34.686Z,43.20
2018-07-03T08:50:05.015Z,42.00
2018-07-03T08:52:35.219Z,41.70
2018-07-03T08:55:09.840Z,39.50
2018-07-03T08:57:38.954Z,40.50
2018-07-03T09:00:09.317Z,41.30
2018-07-03T09:02:38.173Z,41.50
2018-07-03T09:05:06.613Z,40.20
2018-07-03T09:07:35.449Z,38.30
2018-07-03T09:10:06.024Z,39.70
2018-07-03T09:12:34.972Z,38.90
2018-07-03T09:15:03.806Z,37.70
2018-07-03T09:17:32.814Z,35.30
2018-07-03T09:20:02.670Z,37.30
2018-07-03T09:22:31.878Z,35.80
2018-07-03T09:25:00.165Z,36.40
2018-07-03T09:27:30.395Z,37.20
2018-07-03T09:29:58.689Z,37.50
2018-07-03T09:32:27.535Z,35.10
2018-07-03T09:34:55.810Z,33.80
2018-07-03T09:37:24.151Z,34.00
2018-07-03T09:39:52.430Z,34.40
2018-07-03T09:42:20.779Z,35.20
2018-07-03T09:44:49.066Z,33.90
2018-07-03T09:47:19.557Z,33.70
2018-07-03T09:49:49.102Z,33.90
2018-07-03T09:52:17.686Z,34.00
2018-07-03T09:54:48.743Z,34.00
2018-07-03T09:57:18.225Z,32.90
2018-07-03T09:59:47.800Z,31.50
2018-07-03T10:02:17.813Z,31.40
2018-07-03T10:07:38.843Z,33.50
2018-07-03T10:10:08.163Z,33.00
2018-07-03T10:12:36.439Z,32.40
2018-07-03T10:15:05.730Z,33.40
2018-07-03T10:17:33.999Z,32.70
2018-07-03T10:20:02.546Z,32.40
2018-07-03T10:22:30.933Z,31.70
2018-07-03T10:24:59.205Z,31.10
2018-07-03T10:27:27.462Z,32.40
2018-07-03T10:29:56.134Z,31.70
2018-07-03T10:32:25.137Z,31.50
2018-07-03T10:34:53.422Z,32.40
2018-07-03T10:37:21.658Z,31.70
2018-07-03T10:39:49.912Z,30.80
2018-07-03T10:42:18.178Z,32.00
2018-07-03T10:44:46.458Z,30.50
2018-07-03T10:47:14.714Z,31.80
2018-07-03T10:49:42.978Z,32.70
2018-07-03T10:52:11.224Z,29.90
2018-07-03T10:54:39.504Z,30.90
2018-07-03T10:57:07.753Z,30.70
2018-07-03T10:59:40.710Z,32.00
2018-07-03T11:02:10.578Z,30.60
2018-07-03T11:04:39.923Z,31.30
2018-07-03T11:07:09.731Z,33.10
2018-07-03T11:09:39.402Z,33.60
2018-07-03T11:12:10.527Z,34.40
2018-07-03T11:14:38.995Z,34.10
2018-07-03T11:17:07.846Z,35.10
2018-07-03T11:19:37.673Z,35.90
2018-07-03T11:22:10.655Z,37.00
2018-07-03T11:24:40.983Z,34.80
2018-07-03T11:27:09.868Z,35.10
2018-07-03T11:29:40.335Z,36.60
2018-07-03T11:32:09.720Z,36.70
2018-07-03T11:34:38.865Z,36.50
2018-07-03T11:37:08.899Z,35.80
2018-07-03T11:39:37.634Z,36.80
2018-07-03T11:42:07.772Z,37.20
2018-07-03T11:44:43.818Z,35.60
2018-07-03T11:47:12.874Z,35.10
2018-07-03T11:49:46.013Z,36.00
2018-07-03T11:52:16.369Z,36.20
2018-07-03T11:54:45.711Z,35.80
2018-07-03T11:57:17.912Z,37.70
2018-07-03T11:59:47.274Z,38.40
2018-07-03T12:02:19.052Z,37.90
2018-07-03T12:04:48.226Z,37.60
2018-07-03T12:07:17.326Z,38.20
2018-07-03T12:09:47.094Z,38.20
2018-07-03T12:12:17.526Z,39.30
2018-07-03T12:14:47.462Z,39.50
2018-07-03T12:17:16.930Z,40.30
2018-07-03T12:19:45.303Z,39.50
2018-07-03T12:22:14.477Z,38.70
2018-07-03T12:24:42.730Z,38.60
2018-07-03T12:27:10.999Z,39.00
2018-07-03T12:29:39.294Z,37.70
2018-07-03T12:32:07.598Z,36.70
2018-07-03T12:34:36.867Z,35.40
2018-07-03T12:37:06.218Z,36.00
2018-07-03T12:39:35.225Z,35.50
2018-07-03T12:42:03.961Z,36.40
2018-07-03T12:44:32.404Z,36.50
2018-07-03T12:47:00.646Z,37.00
2018-07-03T12:49:28.935Z,37.70
2018-07-03T12:51:57.565Z,37.90
2018-07-03T12:54:25.846Z,37.30
2018-07-03T12:56:54.119Z,37.20
2018-07-03T12:59:23.081Z,37.10
2018-07-03T13:01:51.330Z,37.40
2018-07-03T13:04:20.426Z,37.60
2018-07-03T13:06:49.754Z,37.50
2018-07-03T13:09:18.093Z,37.90
2018-07-03T13:11:46.998Z,38.40
2018-07-03T13:14:15.252Z,38.00
2018-07-03T13:16:43.507Z,37.90
2018-07-03T13:19:15.666Z,36.40
2018-07-03T13:21:44.745Z,35.80
2018-07-03T13:24:13.370Z,35.40
2018-07-03T13:26:41.622Z,36.20
2018-07-03T13:29:11.082Z,36.70
2018-07-03T13:31:39.448Z,37.80
2018-07-03T13:34:08.578Z,38.50
2018-07-03T13:36:36.839Z,38.40
2018-07-03T13:39:08.887Z,37.90
2018-07-03T13:41:37.667Z,38.80
2018-07-03T13:44:07.187Z,37.10
2018-07-03T13:46:37.033Z,37.30
2018-07-03T13:49:06.167Z,38.20
2018-07-03T13:51:34.670Z,37.40
2018-07-03T13:54:03.106Z,36.10
2018-07-03T13:56:32.103Z,36.20
2018-07-03T13:59:00.409Z,36.60
2018-07-03T14:01:28.878Z,36.50
2018-07-03T14:03:58.394Z,38.60
2018-07-03T14:06:26.751Z,37.80
2018-07-03T14:08:55.065Z,37.30
2018-07-03T14:11:23.737Z,38.00
2018-07-03T14:13:52.742Z,38.10
2018-07-03T14:16:21.035Z,38.00
2018-07-03T14:18:49.302Z,36.80
2018-07-03T14:21:18.298Z,38.90
2018-07-03T14:23:48.110Z,38.70
2018-07-03T14:26:16.470Z,38.10
2018-07-03T14:28:44.827Z,37.50
2018-07-03T14:33:42.513Z,37.60
2018-07-03T14:36:11.559Z,39.00
2018-07-03T14:38:39.839Z,38.90
2018-07-03T14:41:08.172Z,38.60
2018-07-03T14:43:36.907Z,37.50
2018-07-03T14:46:05.442Z,37.40
2018-07-03T14:48:36.606Z,38.30
2018-07-03T14:51:05.051Z,39.30
2018-07-03T14:53:34.246Z,37.90
2018-07-03T14:56:03.864Z,37.10
2018-07-03T14:58:32.894Z,37.40
2018-07-03T15:01:03.403Z,37.60
2018-07-03T15:03:31.738Z,37.80
2018-07-03T15:06:02.665Z,39.00
2018-07-03T15:08:32.356Z,38.00
2018-07-03T15:11:00.710Z,37.90
2018-07-03T15:13:30.016Z,38.20
2018-07-03T15:15:58.704Z,38.70
2018-07-03T15:18:31.979Z,38.30
2018-07-03T15:23:31.044Z,38.80
2018-07-03T15:25:59.381Z,39.60
2018-07-03T15:28:27.670Z,38.20
2018-07-03T15:30:56.447Z,39.00
2018-07-03T15:33:24.764Z,38.20
2018-07-03T15:35:53.026Z,39.00
2018-07-03T15:38:21.313Z,38.40
2018-07-03T15:40:50.989Z,38.20
2018-07-03T15:43:19.424Z,38.90
2018-07-03T15:45:47.765Z,38.70
2018-07-03T15:48:16.062Z,38.80
2018-07-03T15:50:44.338Z,40.00
2018-07-03T15:53:13.686Z,38.00
2018-07-03T15:55:41.976Z,37.80
2018-07-03T15:58:10.247Z,37.40
2018-07-03T16:00:38.569Z,38.20
2018-07-03T16:03:18.177Z,38.70
2018-07-03T16:08:38.555Z,38.10
2018-07-03T16:11:06.914Z,38.70
2018-07-03T16:13:35.194Z,38.40
2018-07-03T16:16:03.482Z,39.30
2018-07-03T16:18:31.762Z,39.40
2018-07-03T16:21:00.052Z,38.90
2018-07-03T16:23:28.367Z,39.30
2018-07-03T16:25:56.754Z,38.40
2018-07-03T16:28:25.035Z,38.90
2018-07-03T16:30:54.329Z,38.80
2018-07-03T16:33:22.742Z,37.90
2018-07-03T16:35:51.037Z,38.20
2018-07-03T16:38:19.581Z,38.60
2018-07-03T16:40:47.975Z,38.50
2018-07-03T16:43:16.241Z,38.30
2018-07-03T16:45:44.535Z,38.20
2018-07-03T16:48:12.854Z,38.20
2018-07-03T16:50:41.110Z,38.90
2018-07-03T16:53:10.058Z,38.40
2018-07-03T16:55:38.906Z,38.10
2018-07-03T16:58:08.274Z,38.40
2018-07-03T17:00:36.574Z,38.70
2018-07-03T17:03:04.907Z,39.60
2018-07-03T17:08:02.794Z,37.50
2018-07-03T17:13:05.038Z,37.60
2018-07-03T17:15:33.863Z,38.20
2018-07-03T17:18:07.061Z,39.10
2018-07-03T17:23:06.907Z,38.00
2018-07-03T17:25:39.083Z,38.00
2018-07-03T17:28:08.086Z,37.60
2018-07-03T17:30:37.130Z,38.10
2018-07-03T17:33:07.209Z,38.70
2018-07-03T17:35:35.993Z,38.70
2018-07-03T17:40:46.928Z,38.80
2018-07-03T17:44:43.736Z,39.00
2018-07-03T17:47:14.617Z,37.60
2018-07-03T17:49:44.558Z,38.00
2018-07-03T17:52:12.889Z,37.30
2018-07-03T17:54:42.497Z,37.90
2018-07-03T17:57:11.711Z,38.00
2018-07-03T17:59:42.182Z,38.20
2018-07-03T18:04:41.512Z,37.80
2018-07-03T18:07:10.710Z,36.80
2018-07-03T18:09:39.057Z,37.30
2018-07-03T18:12:07.389Z,38.00
2018-07-03T18:14:37.728Z,38.40
2018-07-03T18:17:06.083Z,38.90
2018-07-03T18:19:39.838Z,39.30
2018-07-03T18:22:08.106Z,39.50
2018-07-03T18:24:36.538Z,38.90
2018-07-03T18:27:05.142Z,39.00
2018-07-03T18:29:37.144Z,39.20
2018-07-03T18:32:08.003Z,39.20
2018-07-03T18:34:37.601Z,39.40
2018-07-03T18:37:05.796Z,39.50
2018-07-03T18:39:34.887Z,39.60
2018-07-03T18:42:03.722Z,40.10
2018-07-03T18:44:31.994Z,40.20
2018-07-03T18:47:00.333Z,40.30
2018-07-03T18:49:28.616Z,40.50
2018-07-03T18:52:00.253Z,40.60
2018-07-03T18:54:28.740Z,41.50
2018-07-03T18:56:57.353Z,41.20
2018-07-03T18:59:25.770Z,41.60
2018-07-03T19:01:55.185Z,41.50
2018-07-03T19:04:23.548Z,42.30
2018-07-03T19:06:55.406Z,42.50
2018-07-03T19:09:23.743Z,43.40
2018-07-03T19:14:20.952Z,45.20
2018-07-03T19:16:49.818Z,45.20
2018-07-03T19:19:18.294Z,45.70
2018-07-03T19:21:46.621Z,45.70
2018-07-03T19:24:15.160Z,46.20
2018-07-03T19:26:44.139Z,47.90
2018-07-03T19:29:12.506Z,48.80
2018-07-03T19:31:42.167Z,49.40
2018-07-03T19:34:11.294Z,49.70
2018-07-03T19:36:40.709Z,49.40
2018-07-03T19:39:11.310Z,49.80
2018-07-03T19:41:40.218Z,50.30
2018-07-03T19:44:08.574Z,50.20
2018-07-03T19:46:36.987Z,51.00
2018-07-03T19:49:05.230Z,50.10
2018-07-03T19:51:33.514Z,50.90
2018-07-03T19:54:01.817Z,51.10
2018-07-03T19:56:32.137Z,51.30
2018-07-03T19:59:00.774Z,52.20
2018-07-03T20:01:29.658Z,52.80
2018-07-03T20:03:58.958Z,57.60
2018-07-03T20:06:27.670Z,72.20
2018-07-03T20:09:01.194Z,77.60
2018-07-03T20:16:50.675Z,65.10
2018-07-03T20:19:19.606Z,65.10
2018-07-03T20:21:48.681Z,63.30
2018-07-03T20:24:17.365Z,64.00
2018-07-03T20:26:49.902Z,65.90
2018-07-03T20:29:18.968Z,64.60
2018-07-03T20:31:47.285Z,64.80
2018-07-03T20:34:15.845Z,64.10
2018-07-03T20:36:44.126Z,65.10
2018-07-03T20:39:13.119Z,67.10
2018-07-03T20:41:42.530Z,66.20
2018-07-03T20:44:12.908Z,66.40
2018-07-03T20:46:41.278Z,65.50
2018-07-03T20:49:09.565Z,65.90
2018-07-03T20:51:37.821Z,64.30
2018-07-03T20:54:07.139Z,64.90
2018-07-03T20:56:35.373Z,64.90
2018-07-03T20:59:04.772Z,65.70
2018-07-03T21:01:35.030Z,64.30
2018-07-03T21:04:04.385Z,64.50
2018-07-03T21:06:33.318Z,64.20
2018-07-03T21:09:01.725Z,64.10
2018-07-03T21:11:30.261Z,64.60
2018-07-03T21:13:58.967Z,64.20
2018-07-03T21:16:30.183Z,64.10
2018-07-03T21:18:59.134Z,64.30
2018-07-03T21:21:27.516Z,64.30
2018-07-03T21:23:55.816Z,64.00
2018-07-03T21:26:24.074Z,64.20
2018-07-03T21:28:52.384Z,63.70
2018-07-03T21:31:21.599Z,63.10
2018-07-03T21:33:52.870Z,63.10
2018-07-03T21:36:24.793Z,63.80
2018-07-03T21:38:54.758Z,63.20
2018-07-03T21:41:24.356Z,63.50
2018-07-03T21:43:53.259Z,63.10
2018-07-03T21:46:22.916Z,63.00
2018-07-03T21:48:55.758Z,63.10
2018-07-03T21:51:24.770Z,63.80
2018-07-03T21:53:54.672Z,63.40
2018-07-03T21:58:53.800Z,64.60
2018-07-03T22:01:24.739Z,65.00
2018-07-03T22:03:53.882Z,64.80
2018-07-03T22:06:24.210Z,64.70
2018-07-03T22:08:52.536Z,64.80
2018-07-03T22:11:20.795Z,64.40
2018-07-03T22:16:17.090Z,65.20
2018-07-03T22:18:45.358Z,63.90
2018-07-03T22:21:13.654Z,63.30
2018-07-03T22:23:42.982Z,64.00
2018-07-03T22:26:12.622Z,63.20
2018-07-03T22:28:42.297Z,63.90
2018-07-03T22:31:13.171Z,64.10
2018-07-03T22:33:42.908Z,65.10
2018-07-03T22:36:11.554Z,66.40
2018-07-03T22:38:40.349Z,66.30
2018-07-03T22:41:09.022Z,65.90
2018-07-03T22:43:37.273Z,65.40
2018-07-03T22:46:05.727Z,66.90
2018-07-03T22:48:35.885Z,66.50
2018-07-03T22:51:04.865Z,66.50
2018-07-03T22:53:38.106Z,66.80
2018-07-03T22:56:08.106Z,66.80
2018-07-03T22:58:37.011Z,66.80
2018-07-03T23:01:06.363Z,67.00
2018-07-03T23:03:35.702Z,67.20
2018-07-03T23:06:08.382Z,67.10
2018-07-03T23:08:36.779Z,66.60
2018-07-03T23:11:08.230Z,67.20
2018-07-03T23:13:36.858Z,66.80
2018-07-03T23:16:06.740Z,66.80
2018-07-03T23:18:35.486Z,66.40
2018-07-03T23:21:04.995Z,66.80
2018-07-03T23:23:33.398Z,67.00
2018-07-03T23:26:01.804Z,67.30
2018-07-03T23:28:30.932Z,67.20
2018-07-03T23:31:03.801Z,66.70
2018-07-03T23:33:34.785Z,67.10
2018-07-03T23:36:03.247Z,67.40
2018-07-03T23:38:32.512Z,67.00
2018-07-03T23:41:02.479Z,66.00
2018-07-03T23:43:31.587Z,66.00
2018-07-03T23:46:01.286Z,65.80
2018-07-03T23:48:41.711Z,65.60
2018-07-03T23:51:25.225Z,65.50
2018-07-03T23:54:06.007Z,65.70
2018-07-03T23:56:49.498Z,66.00
2018-07-03T23:59:29.294Z,66.70
